createdAt,value
2016-06-01T00:00:43.053Z,24.42
2016-06-01T00:01:43.072Z,24.44
2016-06-01T00:02:43.075Z,24.42
2016-06-01T00:03:43.078Z,24.4
2016-06-01T00:04:43.096Z,24.39
2016-06-01T00:05:43.130Z,24.36
2016-06-01T00:06:43.116Z,24.39
2016-06-01T00:07:43.135Z,24.44
2016-06-01T00:08:43.263Z,24.45
2016-06-01T00:09:43.015Z,24.44
2016-06-01T00:10:43.181Z,24.44
2016-06-01T00:11:43.085Z,24.44
2016-06-01T00:12:43.097Z,24.39
2016-06-01T00:13:43.283Z,24.37
2016-06-01T00:14:43.327Z,24.34
2016-06-01T00:15:43.358Z,24.37
2016-06-01T00:16:43.354Z,24.37
2016-06-01T00:17:43.398Z,24.48
2016-06-01T00:18:43.394Z,24.4
2016-06-01T00:19:43.422Z,24.37
2016-06-01T00:20:43.289Z,24.36
2016-06-01T00:21:43.452Z,24.44
2016-06-01T00:22:43.473Z,24.4
2016-06-01T00:23:43.651Z,24.37
2016-06-01T00:24:43.518Z,24.45
2016-06-01T00:25:43.364Z,24.42
2016-06-01T00:26:43.368Z,24.34
2016-06-01T00:27:43.560Z,24.44
2016-06-01T00:28:43.533Z,24.4
2016-06-01T00:29:43.568Z,24.44
2016-06-01T00:30:43.415Z,24.34
2016-06-01T00:31:43.433Z,24.42
2016-06-01T00:32:43.592Z,24.39
2016-06-01T00:33:43.580Z,24.37
2016-06-01T00:34:43.614Z,24.33
2016-06-01T00:35:43.461Z,24.44
2016-06-01T00:36:43.636Z,24.36
2016-06-01T00:37:43.654Z,24.4
2016-06-01T00:38:43.328Z,24.42
2016-06-01T00:39:43.675Z,24.32
2016-06-01T00:40:43.678Z,24.34
2016-06-01T00:41:43.900Z,24.39
2016-06-01T00:42:43.667Z,24.4
2016-06-01T00:43:43.717Z,24.34
2016-06-01T00:44:43.688Z,24.42
2016-06-01T00:45:43.738Z,24.37
2016-06-01T00:46:43.569Z,24.36
2016-06-01T00:47:43.743Z,24.37
2016-06-01T00:48:43.761Z,24.33
2016-06-01T00:49:43.764Z,24.37
2016-06-01T00:50:43.783Z,24.37
2016-06-01T00:51:43.785Z,24.32
2016-06-01T00:52:43.788Z,24.37
2016-06-01T00:53:44.010Z,24.36
2016-06-01T00:54:43.668Z,24.32
2016-06-01T00:55:43.812Z,24.33
2016-06-01T00:56:43.815Z,24.36
2016-06-01T00:57:43.848Z,24.27
2016-06-01T00:58:43.835Z,24.34
2016-06-01T00:59:43.854Z,24.33
2016-06-01T01:00:43.856Z,24.3
2016-06-01T01:01:43.890Z,24.33
2016-06-01T01:02:43.878Z,24.36
2016-06-01T01:03:43.912Z,24.3
2016-06-01T01:04:43.929Z,24.34
2016-06-01T01:05:43.932Z,24.36
2016-06-01T01:06:43.919Z,24.34
2016-06-01T01:07:43.937Z,24.33
2016-06-01T01:08:43.956Z,24.33
2016-06-01T01:09:43.803Z,24.34
2016-06-01T01:10:43.977Z,24.33
2016-06-01T01:11:43.980Z,24.34
2016-06-01T01:12:43.998Z,24.34
2016-06-01T01:13:44.000Z,24.3
2016-06-01T01:14:44.019Z,24.32
2016-06-01T01:15:44.038Z,24.32
2016-06-01T01:16:43.884Z,24.32
2016-06-01T01:17:44.027Z,24.34
2016-06-01T01:18:44.061Z,24.3
2016-06-01T01:19:44.048Z,24.3
2016-06-01T01:20:44.066Z,24.33
2016-06-01T01:21:44.069Z,24.27
2016-06-01T01:22:44.088Z,24.33
2016-06-01T01:23:44.559Z,24.33
2016-06-01T01:24:44.405Z,24.34
2016-06-01T01:25:44.127Z,24.32
2016-06-01T01:26:44.129Z,24.33
2016-06-01T01:27:43.976Z,24.33
2016-06-01T01:28:44.010Z,24.32
2016-06-01T01:29:44.154Z,24.34
2016-06-01T01:30:44.015Z,24.34
2016-06-01T01:31:44.033Z,24.33
2016-06-01T01:32:44.192Z,24.3
2016-06-01T01:33:44.195Z,24.3
2016-06-01T01:34:44.214Z,24.32
2016-06-01T01:35:44.044Z,24.33
2016-06-01T01:36:44.234Z,24.29
2016-06-01T01:37:44.237Z,24.3
2016-06-01T01:38:44.271Z,24.34
2016-06-01T01:39:44.305Z,24.32
2016-06-01T01:40:44.261Z,24.34
2016-06-01T01:41:44.325Z,24.32
2016-06-01T01:42:44.281Z,24.26
2016-06-01T01:43:44.144Z,24.33
2016-06-01T01:44:44.303Z,24.3
2016-06-01T01:45:44.164Z,24.32
2016-06-01T01:46:44.167Z,24.3
2016-06-01T01:47:44.327Z,24.33
2016-06-01T01:48:44.189Z,24.3
2016-06-01T01:49:44.379Z,24.3
2016-06-01T01:50:44.210Z,24.33
2016-06-01T01:51:44.228Z,24.36
2016-06-01T01:52:44.246Z,24.32
2016-06-01T01:53:45.155Z,24.29
2016-06-01T01:54:44.267Z,24.3
2016-06-01T01:55:44.285Z,24.3
2016-06-01T01:56:44.429Z,24.3
2016-06-01T01:57:44.432Z,24.27
2016-06-01T01:58:44.465Z,24.32
2016-06-01T01:59:44.452Z,24.3
2016-06-01T02:00:44.455Z,24.3
2016-06-01T02:01:44.473Z,24.27
2016-06-01T02:02:44.335Z,24.29
2016-06-01T02:03:44.509Z,24.27
2016-06-01T02:04:44.513Z,24.33
2016-06-01T02:05:44.359Z,24.26
2016-06-01T02:06:44.534Z,24.29
2016-06-01T02:07:44.537Z,24.27
2016-06-01T02:08:44.414Z,24.26
2016-06-01T02:09:45.244Z,24.3
2016-06-01T02:10:44.545Z,24.3
2016-06-01T02:11:44.563Z,24.27
2016-06-01T02:12:44.581Z,24.24
2016-06-01T02:13:44.459Z,24.3
2016-06-01T02:14:44.446Z,24.24
2016-06-01T02:15:44.636Z,24.33
2016-06-01T02:16:44.639Z,24.29
2016-06-01T02:17:44.642Z,24.29
2016-06-01T02:18:44.644Z,24.32
2016-06-01T02:19:44.678Z,24.24
2016-06-01T02:20:44.508Z,24.32
2016-06-01T02:21:44.668Z,24.27
2016-06-01T02:22:44.671Z,24.26
2016-06-01T02:23:44.704Z,24.19
2016-06-01T02:24:45.364Z,24.26
2016-06-01T02:25:44.726Z,24.29
2016-06-01T02:26:44.712Z,24.29
2016-06-01T02:27:44.731Z,24.29
2016-06-01T02:28:44.749Z,24.3
2016-06-01T02:29:44.595Z,24.29
2016-06-01T02:30:44.771Z,24.29
2016-06-01T02:31:44.461Z,24.26
2016-06-01T02:32:44.775Z,24.26
2016-06-01T02:33:44.794Z,24.26
2016-06-01T02:34:44.812Z,24.29
2016-06-01T02:35:44.815Z,24.29
2016-06-01T02:36:44.834Z,24.24
2016-06-01T02:37:44.836Z,24.21
2016-06-01T02:38:44.556Z,24.26
2016-06-01T02:39:44.606Z,24.22
2016-06-01T02:40:44.875Z,24.24
2016-06-01T02:41:44.737Z,24.19
2016-06-01T02:42:44.725Z,24.24
2016-06-01T02:43:44.900Z,24.26
2016-06-01T02:44:44.745Z,24.24
2016-06-01T02:45:44.904Z,24.17
2016-06-01T02:46:44.938Z,24.21
2016-06-01T02:47:44.769Z,24.26
2016-06-01T02:48:44.850Z,24.22
2016-06-01T02:49:44.791Z,24.3
2016-06-01T02:50:45.105Z,24.33
2016-06-01T02:51:44.966Z,24.26
2016-06-01T02:52:44.985Z,24.22
2016-06-01T02:53:44.848Z,24.29
2016-06-01T02:54:44.710Z,24.22
2016-06-01T02:55:44.994Z,24.19
2016-06-01T02:56:45.075Z,24.3
2016-06-01T02:57:45.015Z,24.27
2016-06-01T02:58:45.048Z,24.3
2016-06-01T02:59:45.052Z,24.3
2016-06-01T03:00:44.929Z,24.27
2016-06-01T03:01:45.073Z,24.22
2016-06-01T03:02:45.076Z,24.27
2016-06-01T03:03:44.953Z,24.21
2016-06-01T03:04:45.111Z,24.15
2016-06-01T03:05:45.115Z,24.21
2016-06-01T03:06:44.976Z,24.19
2016-06-01T03:07:45.135Z,24.15
2016-06-01T03:08:46.045Z,24.22
2016-06-01T03:09:44.844Z,24.3
2016-06-01T03:10:45.175Z,24.22
2016-06-01T03:11:45.005Z,24.19
2016-06-01T03:12:45.024Z,24.29
2016-06-01T03:13:45.026Z,24.22
2016-06-01T03:14:45.201Z,24.24
2016-06-01T03:15:45.203Z,24.22
2016-06-01T03:16:45.222Z,24.18
2016-06-01T03:17:45.225Z,24.18
2016-06-01T03:18:45.228Z,24.18
2016-06-01T03:19:45.246Z,24.21
2016-06-01T03:20:45.249Z,24.26
2016-06-01T03:21:45.267Z,24.22
2016-06-01T03:22:45.269Z,24.3
2016-06-01T03:23:45.913Z,24.15
2016-06-01T03:24:45.306Z,24.26
2016-06-01T03:25:45.169Z,24.26
2016-06-01T03:26:45.155Z,24.17
2016-06-01T03:27:45.346Z,24.15
2016-06-01T03:28:45.349Z,24.24
2016-06-01T03:29:45.194Z,24.3
2016-06-01T03:30:45.213Z,24.26
2016-06-01T03:31:45.388Z,24.24
2016-06-01T03:32:45.375Z,24.27
2016-06-01T03:33:45.393Z,24.26
2016-06-01T03:34:45.395Z,24.15
2016-06-01T03:35:45.414Z,24.19
2016-06-01T03:36:45.260Z,24.19
2016-06-01T03:37:45.435Z,24.24
2016-06-01T03:38:46.110Z,24.21
2016-06-01T03:39:45.440Z,24.26
2016-06-01T03:40:45.302Z,24.24
2016-06-01T03:41:45.492Z,24.15
2016-06-01T03:42:45.464Z,24.22
2016-06-01T03:43:45.498Z,24.17
2016-06-01T03:44:45.517Z,24.22
2016-06-01T03:45:45.348Z,24.26
2016-06-01T03:46:45.521Z,24.17
2016-06-01T03:47:45.539Z,24.21
2016-06-01T03:48:45.527Z,24.17
2016-06-01T03:49:45.530Z,24.24
2016-06-01T03:50:45.563Z,24.15
2016-06-01T03:51:45.583Z,24.24
2016-06-01T03:52:45.568Z,24.22
2016-06-01T03:53:45.431Z,24.26
2016-06-01T03:54:45.606Z,24.17
2016-06-01T03:55:45.608Z,24.17
2016-06-01T03:56:45.611Z,24.19
2016-06-01T03:57:45.614Z,24.22
2016-06-01T03:58:45.476Z,24.27
2016-06-01T03:59:45.650Z,24.26
2016-06-01T04:00:45.668Z,24.27
2016-06-01T04:01:45.515Z,24.24
2016-06-01T04:02:45.690Z,24.26
2016-06-01T04:03:45.552Z,24.3
2016-06-01T04:04:45.696Z,24.26
2016-06-01T04:05:45.697Z,24.22
2016-06-01T04:06:45.701Z,24.26
2016-06-01T04:07:45.579Z,24.33
2016-06-01T04:08:45.737Z,24.27
2016-06-01T04:09:45.615Z,24.22
2016-06-01T04:10:45.743Z,24.22
2016-06-01T04:11:45.776Z,24.22
2016-06-01T04:12:45.607Z,24.21
2016-06-01T04:13:45.782Z,24.27
2016-06-01T04:14:45.784Z,24.3
2016-06-01T04:15:45.803Z,24.14
2016-06-01T04:16:45.650Z,24.27
2016-06-01T04:17:45.698Z,24.27
2016-06-01T04:18:45.811Z,24.24
2016-06-01T04:19:45.828Z,24.29
2016-06-01T04:20:45.692Z,24.29
2016-06-01T04:21:45.881Z,24.27
2016-06-01T04:22:45.853Z,24.24
2016-06-01T04:23:45.746Z,24.22
2016-06-01T04:24:46.624Z,24.24
2016-06-01T04:25:45.907Z,24.21
2016-06-01T04:26:45.911Z,24.19
2016-06-01T04:27:45.772Z,24.27
2016-06-01T04:28:45.932Z,24.24
2016-06-01T04:29:45.949Z,24.24
2016-06-01T04:30:45.938Z,24.21
2016-06-01T04:31:45.970Z,24.24
2016-06-01T04:32:45.802Z,24.22
2016-06-01T04:33:45.976Z,24.24
2016-06-01T04:34:45.963Z,24.24
2016-06-01T04:35:45.841Z,24.26
2016-06-01T04:36:46.015Z,24.26
2016-06-01T04:37:46.018Z,24.29
2016-06-01T04:38:46.052Z,24.29
2016-06-01T04:39:46.571Z,24.22
2016-06-01T04:40:46.042Z,24.27
2016-06-01T04:41:46.045Z,24.32
2016-06-01T04:42:46.078Z,24.29
2016-06-01T04:43:46.065Z,24.26
2016-06-01T04:44:46.115Z,24.29
2016-06-01T04:45:46.117Z,24.19
2016-06-01T04:46:46.120Z,24.29
2016-06-01T04:47:46.139Z,24.24
2016-06-01T04:48:45.985Z,24.19
2016-06-01T04:49:46.145Z,24.22
2016-06-01T04:50:46.131Z,24.33
2016-06-01T04:51:46.149Z,24.26
2016-06-01T04:52:46.028Z,24.22
2016-06-01T04:53:46.467Z,24.26
2016-06-01T04:54:47.094Z,24.32
2016-06-01T04:55:46.192Z,24.22
2016-06-01T04:56:46.194Z,24.21
2016-06-01T04:57:46.213Z,24.19
2016-06-01T04:58:46.230Z,24.3
2016-06-01T04:59:46.219Z,24.29
2016-06-01T05:00:46.268Z,24.29
2016-06-01T05:01:46.099Z,24.24
2016-06-01T05:02:46.288Z,24.29
2016-06-01T05:03:46.260Z,24.19
2016-06-01T05:04:46.279Z,24.22
2016-06-01T05:06:00.440Z,24.32
2016-06-01T05:06:46.330Z,24.29
2016-06-01T05:07:46.318Z,24.22
2016-06-01T05:08:46.743Z,24.26
2016-06-01T05:09:47.121Z,24.3
2016-06-01T05:10:46.216Z,24.29
2016-06-01T05:11:46.375Z,24.27
2016-06-01T05:12:46.362Z,24.33
2016-06-01T05:13:46.209Z,24.3
2016-06-01T05:14:46.398Z,24.3
2016-06-01T05:15:46.401Z,24.32
2016-06-01T05:16:46.436Z,24.32
2016-06-01T05:17:46.251Z,24.3
2016-06-01T05:18:46.425Z,24.32
2016-06-01T05:19:46.444Z,24.36
2016-06-01T05:20:46.431Z,24.3
2016-06-01T05:21:46.481Z,24.29
2016-06-01T05:22:46.467Z,24.29
2016-06-01T05:23:47.329Z,24.33
2016-06-01T05:24:46.536Z,24.32
2016-06-01T05:25:46.506Z,24.36
2016-06-01T05:26:46.494Z,24.32
2016-06-01T05:27:46.512Z,24.33
2016-06-01T05:28:46.514Z,24.32
2016-06-01T05:29:46.533Z,24.34
2016-06-01T05:30:46.552Z,24.3
2016-06-01T05:31:46.538Z,24.33
2016-06-01T05:32:46.557Z,24.33
2016-06-01T05:33:46.575Z,24.37
2016-06-01T05:34:46.593Z,24.33
2016-06-01T05:35:46.440Z,24.34
2016-06-01T05:36:46.458Z,24.34
2016-06-01T05:37:46.618Z,24.32
2016-06-01T05:38:46.635Z,24.34
2016-06-01T05:39:46.638Z,24.4
2016-06-01T05:40:46.500Z,24.39
2016-06-01T05:41:46.643Z,24.3
2016-06-01T05:42:46.506Z,24.37
2016-06-01T05:43:46.664Z,24.37
2016-06-01T05:44:46.526Z,24.34
2016-06-01T05:45:46.529Z,24.33
2016-06-01T05:46:46.720Z,24.34
2016-06-01T05:47:46.706Z,24.36
2016-06-01T05:48:46.725Z,24.39
2016-06-01T05:49:46.587Z,24.36
2016-06-01T05:50:46.746Z,24.42
2016-06-01T05:51:46.748Z,24.4
2016-06-01T05:52:46.611Z,24.39
2016-06-01T05:53:46.503Z,24.44
2016-06-01T05:54:47.647Z,24.48
2016-06-01T05:55:46.806Z,24.49
2016-06-01T05:56:46.794Z,24.46
2016-06-01T05:57:46.827Z,24.45
2016-06-01T05:58:46.674Z,24.44
2016-06-01T05:59:46.848Z,24.55
2016-06-01T06:00:46.539Z,24.51
2016-06-01T06:01:46.853Z,24.49
2016-06-01T06:02:46.856Z,24.59
2016-06-01T06:03:46.891Z,24.56
2016-06-01T06:04:46.877Z,24.56
2016-06-01T06:05:46.879Z,24.58
2016-06-01T06:06:46.757Z,24.52
2016-06-01T06:07:46.916Z,24.49
2016-06-01T06:08:46.919Z,24.54
2016-06-01T06:09:46.765Z,24.52
2016-06-01T06:10:49.846Z,24.54
2016-06-01T06:11:46.943Z,24.49
2016-06-01T06:12:46.962Z,24.49
2016-06-01T06:13:46.980Z,24.52
2016-06-01T06:14:46.982Z,24.55
2016-06-01T06:15:50.078Z,24.55
2016-06-01T06:16:47.003Z,24.54
2016-06-01T06:17:47.006Z,24.49
2016-06-01T06:18:47.008Z,24.49
2016-06-01T06:19:47.026Z,24.63
2016-06-01T06:20:51.014Z,24.58
2016-06-01T06:21:47.063Z,24.64
2016-06-01T06:22:47.050Z,24.61
2016-06-01T06:23:47.101Z,24.63
2016-06-01T06:24:47.681Z,24.52
2016-06-01T06:25:47.122Z,24.63
2016-06-01T06:26:46.936Z,24.56
2016-06-01T06:27:47.095Z,24.64
2016-06-01T06:28:47.113Z,24.51
2016-06-01T06:29:46.976Z,24.58
2016-06-01T06:30:50.041Z,24.55
2016-06-01T06:31:47.168Z,24.55
2016-06-01T06:32:46.999Z,24.55
2016-06-01T06:33:47.174Z,24.59
2016-06-01T06:34:47.021Z,24.52
2016-06-01T06:35:48.055Z,24.64
2016-06-01T06:36:47.197Z,24.59
2016-06-01T06:37:47.216Z,24.56
2016-06-01T06:38:47.218Z,24.58
2016-06-01T06:39:47.252Z,24.58
2016-06-01T06:40:47.849Z,24.58
2016-06-01T06:41:47.258Z,24.61
2016-06-01T06:42:47.261Z,24.64
2016-06-01T06:43:47.263Z,24.71
2016-06-01T06:44:47.282Z,24.77
2016-06-01T06:45:48.690Z,24.75
2016-06-01T06:46:47.318Z,24.63
2016-06-01T06:47:47.306Z,24.67
2016-06-01T06:49:18.670Z,24.74
2016-06-01T06:49:47.326Z,24.67
2016-06-01T06:50:50.392Z,24.69
2016-06-01T06:51:47.332Z,24.69
2016-06-01T06:52:47.381Z,24.63
2016-06-01T06:53:47.367Z,24.69
2016-06-01T06:54:47.433Z,24.74
2016-06-01T06:55:49.514Z,24.69
2016-06-01T06:56:47.392Z,24.67
2016-06-01T06:57:47.411Z,24.69
2016-06-01T06:58:47.273Z,24.75
2016-06-01T06:59:47.416Z,24.74
2016-06-01T07:00:50.199Z,24.77
2016-06-01T07:01:47.452Z,24.78
2016-06-01T07:02:47.330Z,24.75
2016-06-01T07:03:47.458Z,24.74
2016-06-01T07:04:47.336Z,24.78
2016-06-01T07:05:50.308Z,24.78
2016-06-01T07:06:47.497Z,24.8
2016-06-01T07:07:47.359Z,24.71
2016-06-01T07:08:47.409Z,24.74
2016-06-01T07:09:47.521Z,24.74
2016-06-01T07:10:50.930Z,24.74
2016-06-01T07:11:47.557Z,24.8
2016-06-01T07:12:47.404Z,24.83
2016-06-01T07:13:47.563Z,24.75
2016-06-01T07:14:47.581Z,24.8
2016-06-01T07:15:49.256Z,24.75
2016-06-01T07:16:47.601Z,24.82
2016-06-01T07:17:47.621Z,24.74
2016-06-01T07:18:47.639Z,24.74
2016-06-01T07:19:47.626Z,24.77
2016-06-01T07:20:49.426Z,24.82
2016-06-01T07:21:47.662Z,24.85
2016-06-01T07:22:47.634Z,24.86
2016-06-01T07:23:47.683Z,24.86
2016-06-01T07:24:47.920Z,24.85
2016-06-01T07:25:49.970Z,24.78
2016-06-01T07:26:47.707Z,24.87
2016-06-01T07:27:47.725Z,24.8
2016-06-01T07:28:47.712Z,24.77
2016-06-01T07:29:47.731Z,24.85
2016-06-01T07:30:51.139Z,24.8
2016-06-01T07:31:47.752Z,24.75
2016-06-01T07:32:47.614Z,24.78
2016-06-01T07:33:47.773Z,24.74
2016-06-01T07:34:47.791Z,24.69
2016-06-01T07:35:49.560Z,24.89
2016-06-01T07:36:47.797Z,24.78
2016-06-01T07:37:47.815Z,24.85
2016-06-01T07:38:48.613Z,24.86
2016-06-01T07:39:47.679Z,24.8
2016-06-01T07:40:50.682Z,24.86
2016-06-01T07:41:47.857Z,24.89
2016-06-01T07:42:47.875Z,24.78
2016-06-01T07:43:47.707Z,24.77
2016-06-01T07:44:47.724Z,24.92
2016-06-01T07:45:50.976Z,24.89
2016-06-01T07:46:47.745Z,24.8
2016-06-01T07:47:47.904Z,24.96
2016-06-01T07:48:47.766Z,24.94
2016-06-01T07:49:47.926Z,24.94
2016-06-01T07:50:49.881Z,24.94
2016-06-01T07:51:47.946Z,24.87
2016-06-01T07:52:47.964Z,24.89
2016-06-01T07:53:48.029Z,24.89
2016-06-01T07:54:48.470Z,24.92
2016-06-01T07:55:50.660Z,24.9
2016-06-01T07:56:48.022Z,25
2016-06-01T07:57:48.025Z,24.96
2016-06-01T07:58:48.028Z,24.96
2016-06-01T07:59:47.874Z,24.92
2016-06-01T08:00:48.190Z,25
2016-06-01T08:01:48.050Z,24.9
2016-06-01T08:02:48.069Z,24.9
2016-06-01T08:03:48.072Z,25.01
2016-06-01T08:04:47.919Z,25
2016-06-01T08:05:50.093Z,25
2016-06-01T08:06:47.955Z,24.92
2016-06-01T08:07:48.130Z,25
2016-06-01T08:08:48.336Z,24.97
2016-06-01T08:09:48.947Z,25.07
2016-06-01T08:10:49.763Z,25.02
2016-06-01T08:11:48.156Z,25.05
2016-06-01T08:12:48.159Z,25.09
2016-06-01T08:13:48.177Z,24.94
2016-06-01T08:14:48.196Z,24.94
2016-06-01T08:15:50.152Z,25.01
2016-06-01T08:16:48.185Z,25.02
2016-06-01T08:17:48.204Z,25.05
2016-06-01T08:18:48.237Z,25.04
2016-06-01T08:19:48.240Z,25.02
2016-06-01T08:20:51.446Z,24.92
2016-06-01T08:21:48.105Z,25.02
2016-06-01T08:22:48.265Z,24.92
2016-06-01T08:23:48.282Z,25.01
2016-06-01T08:24:48.300Z,25.02
2016-06-01T08:25:51.273Z,25.09
2016-06-01T08:26:48.150Z,25
2016-06-01T08:27:48.325Z,25.09
2016-06-01T08:28:48.327Z,25.08
2016-06-01T08:29:48.361Z,25.14
2016-06-01T08:30:50.911Z,25.09
2016-06-01T08:31:48.367Z,25.11
2016-06-01T08:32:48.384Z,25.17
2016-06-01T08:33:48.386Z,25.19
2016-06-01T08:34:48.219Z,25.07
2016-06-01T08:35:48.408Z,25.08
2016-06-01T08:36:48.411Z,25.09
2016-06-01T08:37:48.414Z,25.12
2016-06-01T08:38:48.182Z,25.11
2016-06-01T08:39:48.450Z,25.08
2016-06-01T08:40:50.656Z,25.15
2016-06-01T08:41:48.471Z,25.04
2016-06-01T08:42:48.365Z,25.12
2016-06-01T08:43:48.493Z,25.12
2016-06-01T08:44:48.480Z,25.15
2016-06-01T08:45:49.201Z,25.14
2016-06-01T08:46:48.532Z,25.15
2016-06-01T08:47:48.535Z,25.15
2016-06-01T08:48:48.538Z,25.2
2016-06-01T08:49:48.384Z,25.19
2016-06-01T08:50:51.698Z,25.19
2016-06-01T08:51:48.560Z,25.24
2016-06-01T08:52:48.595Z,25.24
2016-06-01T08:53:48.598Z,25.22
2016-06-01T08:54:48.601Z,25.22
2016-06-01T08:55:52.275Z,25.29
2016-06-01T08:56:48.621Z,25.24
2016-06-01T08:57:48.484Z,25.34
2016-06-01T08:58:48.470Z,25.27
2016-06-01T08:59:48.660Z,25.29
2016-06-01T09:00:48.507Z,25.27
2016-06-01T09:01:48.666Z,25.2
2016-06-01T09:02:48.669Z,25.23
2016-06-01T09:03:48.547Z,25.38
2016-06-01T09:04:48.689Z,25.3
2016-06-01T09:05:48.723Z,25.37
2016-06-01T09:06:48.726Z,25.32
2016-06-01T09:07:48.744Z,25.34
2016-06-01T09:08:49.138Z,25.32
2016-06-01T09:09:49.437Z,25.29
2016-06-01T09:10:48.768Z,25.37
2016-06-01T09:11:48.786Z,25.34
2016-06-01T09:12:48.789Z,25.44
2016-06-01T09:13:48.808Z,25.44
2016-06-01T09:14:48.794Z,25.49
2016-06-01T09:15:48.845Z,25.48
2016-06-01T09:16:48.685Z,25.47
2016-06-01T09:17:48.884Z,25.45
2016-06-01T09:18:48.769Z,25.45
2016-06-01T09:19:49.031Z,25.39
2016-06-01T09:20:49.025Z,25.45
2016-06-01T09:21:49.006Z,25.39
2016-06-01T09:22:49.000Z,25.44
2016-06-01T09:23:48.887Z,25.44
2016-06-01T09:24:49.726Z,25.51
2016-06-01T09:25:49.081Z,25.56
2016-06-01T09:26:49.118Z,25.66
2016-06-01T09:27:49.093Z,25.67
2016-06-01T09:28:49.114Z,25.75
2016-06-01T09:29:49.135Z,25.74
2016-06-01T09:30:49.157Z,25.63
2016-06-01T09:31:49.160Z,25.7
2016-06-01T09:32:49.181Z,25.57
2016-06-01T09:33:49.185Z,25.66
2016-06-01T09:34:49.188Z,25.69
2016-06-01T09:35:49.207Z,25.75
2016-06-01T09:36:49.226Z,25.69
2016-06-01T09:37:49.073Z,25.67
2016-06-01T09:38:49.232Z,25.63
2016-06-01T09:39:49.438Z,25.47
2016-06-01T09:40:49.253Z,25.23
2016-06-01T09:41:49.132Z,25
2016-06-01T09:42:49.307Z,25.02
2016-06-01T09:43:49.294Z,25.04
2016-06-01T09:44:49.312Z,25.07
2016-06-01T09:45:49.315Z,24.96
2016-06-01T09:46:49.350Z,24.96
2016-06-01T09:47:49.337Z,24.8
2016-06-01T09:48:49.356Z,24.89
2016-06-01T09:49:49.342Z,24.94
2016-06-01T09:50:49.220Z,25.12
2016-06-01T09:51:49.364Z,25.2
2016-06-01T09:52:49.367Z,25.32
2016-06-01T09:53:49.400Z,25.33
2016-06-01T09:54:49.339Z,25.48
2016-06-01T09:55:49.406Z,25.47
2016-06-01T09:56:49.439Z,25.47
2016-06-01T09:57:49.442Z,25.63
2016-06-01T09:58:49.460Z,25.57
2016-06-01T09:59:49.463Z,25.59
2016-06-01T10:00:49.497Z,25.64
2016-06-01T10:01:49.328Z,25.7
2016-06-01T10:02:49.487Z,25.67
2016-06-01T10:03:49.489Z,25.64
2016-06-01T10:04:49.507Z,25.71
2016-06-01T10:05:49.402Z,25.81
2016-06-01T10:06:49.529Z,25.69
2016-06-01T10:07:49.532Z,25.79
2016-06-01T10:08:49.549Z,25.79
2016-06-01T10:09:49.271Z,25.74
2016-06-01T10:10:49.586Z,25.76
2016-06-01T10:11:49.589Z,25.79
2016-06-01T10:12:49.577Z,25.82
2016-06-01T10:13:49.610Z,25.81
2016-06-01T10:14:49.628Z,25.81
2016-06-01T10:15:49.647Z,25.62
2016-06-01T10:16:49.634Z,25.52
2016-06-01T10:17:49.495Z,25.45
2016-06-01T10:18:49.498Z,25.42
2016-06-01T10:19:49.673Z,25.38
2016-06-01T10:20:49.692Z,25.33
2016-06-01T10:21:49.694Z,25.27
2016-06-01T10:22:49.728Z,25.26
2016-06-01T10:23:49.715Z,25.23
2016-06-01T10:24:50.609Z,25.38
2016-06-01T10:25:49.737Z,25.42
2016-06-01T10:26:49.583Z,25.52
2016-06-01T10:27:49.772Z,25.74
2016-06-01T10:28:49.759Z,25.63
2016-06-01T10:29:49.622Z,25.71
2016-06-01T10:30:49.781Z,25.67
2016-06-01T10:31:49.799Z,25.66
2016-06-01T10:32:49.802Z,25.54
2016-06-01T10:33:49.664Z,25.47
2016-06-01T10:34:49.698Z,25.44
2016-06-01T10:35:49.685Z,25.49
2016-06-01T10:36:49.703Z,25.47
2016-06-01T10:37:49.862Z,25.45
2016-06-01T10:38:49.897Z,25.54
2016-06-01T10:39:50.227Z,25.47
2016-06-01T10:40:49.901Z,25.48
2016-06-01T10:41:49.920Z,25.52
2016-06-01T10:42:49.922Z,25.52
2016-06-01T10:43:49.925Z,25.52
2016-06-01T10:44:49.912Z,25.59
2016-06-01T10:45:49.930Z,25.51
2016-06-01T10:46:49.948Z,25.52
2016-06-01T10:47:49.968Z,25.47
2016-06-01T10:48:49.970Z,25.38
2016-06-01T10:49:49.973Z,25.48
2016-06-01T10:50:50.038Z,25.49
2016-06-01T10:51:49.994Z,25.48
2016-06-01T10:52:49.871Z,25.48
2016-06-01T10:53:50.030Z,25.48
2016-06-01T10:54:50.892Z,25.52
2016-06-01T10:55:50.051Z,25.51
2016-06-01T10:56:50.085Z,25.59
2016-06-01T10:57:50.072Z,25.49
2016-06-01T10:58:49.934Z,25.52
2016-06-01T10:59:50.109Z,25.48
2016-06-01T11:00:50.128Z,25.48
2016-06-01T11:01:50.131Z,25.54
2016-06-01T11:02:50.116Z,25.45
2016-06-01T11:03:50.135Z,25.39
2016-06-01T11:04:49.981Z,25.41
2016-06-01T11:05:50.156Z,25.41
2016-06-01T11:06:50.158Z,25.45
2016-06-01T11:07:50.021Z,25.44
2016-06-01T11:08:50.164Z,25.47
2016-06-01T11:09:50.464Z,25.48
2016-06-01T11:10:50.185Z,25.64
2016-06-01T11:11:50.204Z,25.71
2016-06-01T11:12:50.206Z,25.69
2016-06-01T11:13:50.224Z,25.82
2016-06-01T11:14:50.274Z,25.79
2016-06-01T11:15:50.121Z,25.78
2016-06-01T11:16:50.263Z,25.86
2016-06-01T11:17:50.298Z,25.78
2016-06-01T11:18:50.301Z,25.79
2016-06-01T11:19:50.335Z,25.78
2016-06-01T11:20:50.306Z,25.85
2016-06-01T11:21:50.324Z,25.78
2016-06-01T11:22:50.311Z,25.82
2016-06-01T11:23:50.345Z,25.84
2016-06-01T11:24:50.457Z,25.82
2016-06-01T11:25:50.367Z,25.84
2016-06-01T11:26:50.353Z,25.82
2016-06-01T11:27:50.231Z,25.88
2016-06-01T11:28:50.406Z,25.78
2016-06-01T11:29:50.409Z,25.81
2016-06-01T11:30:50.239Z,25.82
2016-06-01T11:31:50.257Z,25.86
2016-06-01T11:32:50.431Z,25.89
2016-06-01T11:33:50.419Z,25.96
2016-06-01T11:34:50.453Z,25.94
2016-06-01T11:35:50.440Z,25.93
2016-06-01T11:36:50.475Z,25.82
2016-06-01T11:37:50.320Z,25.66
2016-06-01T11:38:50.495Z,25.45
2016-06-01T11:39:51.655Z,25.32
2016-06-01T11:40:50.516Z,25.14
2016-06-01T11:41:50.534Z,25.01
2016-06-01T11:42:50.677Z,25.01
2016-06-01T11:43:50.555Z,24.89
2016-06-01T11:44:50.574Z,24.82
2016-06-01T11:45:50.561Z,24.9
2016-06-01T11:46:50.407Z,24.92
2016-06-01T11:47:50.582Z,25.05
2016-06-01T11:48:50.632Z,24.96
2016-06-01T11:49:50.446Z,25
2016-06-01T11:50:50.637Z,25
2016-06-01T11:51:50.624Z,24.86
2016-06-01T11:52:50.657Z,24.92
2016-06-01T11:53:50.660Z,24.87
2016-06-01T11:54:51.459Z,24.83
2016-06-01T11:55:50.353Z,24.77
2016-06-01T11:56:50.684Z,24.83
2016-06-01T11:57:50.531Z,24.8
2016-06-01T11:58:50.689Z,24.59
2016-06-01T11:59:50.692Z,24.54
2016-06-01T12:00:50.711Z,24.48
2016-06-01T12:01:50.714Z,24.56
2016-06-01T12:02:50.747Z,24.55
2016-06-01T12:03:50.734Z,24.42
2016-06-01T12:04:50.612Z,24.46
2016-06-01T12:05:50.787Z,24.52
2016-06-01T12:06:50.772Z,24.54
2016-06-01T12:07:50.792Z,24.49
2016-06-01T12:08:50.811Z,24.33
2016-06-01T12:09:50.953Z,24.33
2016-06-01T12:10:50.830Z,24.46
2016-06-01T12:11:50.834Z,24.48
2016-06-01T12:12:50.852Z,24.52
2016-06-01T12:13:50.839Z,24.42
2016-06-01T12:14:50.858Z,24.46
2016-06-01T12:15:50.860Z,24.52
2016-06-01T12:16:50.863Z,24.63
2016-06-01T12:17:50.896Z,24.69
2016-06-01T12:18:50.727Z,24.8
2016-06-01T12:19:50.902Z,24.75
2016-06-01T12:20:50.904Z,24.74
2016-06-01T12:21:50.907Z,24.86
2016-06-01T12:22:50.910Z,24.86
2016-06-01T12:23:50.960Z,24.9
2016-06-01T12:24:50.978Z,24.83
2016-06-01T12:25:50.981Z,24.8
2016-06-01T12:26:50.968Z,24.85
2016-06-01T12:27:50.986Z,24.85
2016-06-01T12:28:50.833Z,24.92
2016-06-01T12:29:51.007Z,25
2016-06-01T12:30:51.025Z,25.11
2016-06-01T12:31:51.045Z,25.22
2016-06-01T12:32:51.031Z,25.37
2016-06-01T12:33:51.049Z,25.44
2016-06-01T12:34:50.911Z,25.49
2016-06-01T12:35:51.086Z,25.52
2016-06-01T12:36:51.057Z,25.45
2016-06-01T12:37:51.076Z,25.59
2016-06-01T12:38:51.078Z,25.64
2016-06-01T12:39:51.566Z,25.76
2016-06-01T12:40:51.100Z,25.74
2016-06-01T12:41:51.149Z,25.74
2016-06-01T12:42:51.277Z,25.74
2016-06-01T12:43:51.155Z,25.82
2016-06-01T12:44:51.157Z,25.79
2016-06-01T12:45:51.159Z,25.82
2016-06-01T12:46:51.163Z,25.85
2016-06-01T12:47:51.196Z,25.93
2016-06-01T12:48:51.199Z,25.88
2016-06-01T12:49:51.202Z,25.91
2016-06-01T12:50:51.220Z,25.88
2016-06-01T12:51:51.223Z,25.88
2016-06-01T12:52:51.257Z,25.91
2016-06-01T12:53:51.104Z,25.88
2016-06-01T12:54:51.340Z,25.96
2016-06-01T12:55:51.296Z,25.91